Terminal Aerodrome Forecast
Issued by NWS

Home | Current Version | Previous Version | Text Only | Print | Product List | Glossary On
Versions: 1 2 3 4 5 6 7 8 9 10 11 12 13 14 15 16 17
499
FTUS43 KIND 272320
TAFLAF
TAF
KLAF 272320Z 2800/2824 20004KT P6SM BKN130
     FM280700 VRB02KT 4SM BR OVC250
     FM280900 VRB02KT 2SM BR OVC007
      TEMPO 2809/2813 1SM -SHRA OVC015
     FM281400 23003KT 4SM BR OVC050
      AMD LTD TO CLD VIS AND WIND TIL 281300=

USA.gov is the U.S. government's official web portal to all federal, state and local government web resources and services.